createdAt,value
2022-11-05T00:01:34.545Z,19.27
2022-11-05T00:04:15.495Z,17.50
2022-11-05T00:06:56.529Z,19.60
2022-11-05T00:09:29.584Z,20.57
2022-11-05T00:12:10.323Z,20.17
2022-11-05T00:14:51.718Z,24.27
2022-11-05T00:17:14.802Z,21.23
2022-11-05T00:19:37.959Z,21.33
2022-11-05T00:22:18.900Z,22.87
2022-11-05T00:24:59.981Z,19.30
2022-11-05T00:27:22.176Z,17.20
2022-11-05T00:29:44.403Z,19.03
2022-11-05T00:32:06.588Z,19.50
2022-11-05T00:34:28.786Z,17.93
2022-11-05T00:36:51.032Z,17.10
2022-11-05T00:39:13.344Z,16.57
2022-11-05T00:41:35.624Z,19.93
2022-11-05T00:44:16.393Z,17.90
2022-11-05T00:46:38.571Z,19.43
2022-11-05T00:49:19.666Z,20.30
2022-11-05T00:51:41.903Z,16.70
2022-11-05T00:54:04.219Z,15.63
2022-11-05T00:56:26.534Z,17.17
2022-11-05T00:58:48.905Z,19.97
2022-11-05T01:01:11.952Z,20.90
2022-11-05T01:03:35.326Z,17.97
2022-11-05T01:05:58.991Z,21.17
2022-11-05T01:08:21.886Z,22.63
2022-11-05T01:10:45.488Z,21.83
2022-11-05T01:13:12.689Z,22.47
2022-11-05T01:15:36.952Z,19.13
2022-11-05T01:17:59.086Z,20.30
2022-11-05T01:20:21.311Z,23.73
2022-11-05T01:22:43.560Z,21.93
2022-11-05T01:25:07.380Z,22.80
2022-11-05T01:27:29.566Z,20.73
2022-11-05T01:29:51.786Z,19.20
2022-11-05T01:32:14.072Z,18.53
2022-11-05T01:34:36.367Z,18.93
2022-11-05T01:36:58.760Z,21.20
2022-11-05T01:39:21.094Z,24.57
2022-11-05T01:41:43.349Z,21.23
2022-11-05T01:44:05.599Z,17.70
2022-11-05T01:46:33.827Z,25.23
2022-11-05T01:49:02.920Z,20.53
2022-11-05T01:51:27.245Z,18.77
2022-11-05T01:53:52.059Z,22.73
2022-11-05T01:56:17.917Z,22.50
2022-11-05T01:58:45.814Z,21.50
2022-11-05T02:01:08.100Z,17.47
2022-11-05T02:03:30.711Z,23.17
2022-11-05T02:05:53.819Z,20.63
2022-11-05T02:08:42.687Z,22.00
2022-11-05T02:11:05.005Z,21.87
2022-11-05T02:13:27.235Z,19.30
2022-11-05T02:15:54.907Z,18.97
2022-11-05T02:18:36.045Z,19.73
2022-11-05T02:21:01.287Z,20.53
2022-11-05T02:23:41.950Z,21.27
2022-11-05T02:26:22.689Z,18.50
2022-11-05T02:29:03.251Z,18.90
2022-11-05T02:31:31.426Z,18.70
2022-11-05T02:34:01.340Z,22.77
2022-11-05T02:36:23.528Z,22.97
2022-11-05T02:39:04.664Z,17.63
2022-11-05T02:41:47.401Z,20.77
2022-11-05T02:44:18.165Z,15.07
2022-11-05T02:46:54.991Z,17.50
2022-11-05T02:49:43.632Z,11.70
2022-11-05T02:52:08.752Z,17.07
2022-11-05T02:54:36.963Z,10.80
2022-11-05T02:56:59.911Z,12.27
2022-11-05T02:59:22.105Z,12.37
2022-11-05T03:01:46.299Z,15.97
2022-11-05T03:04:10.253Z,12.57
2022-11-05T03:06:39.145Z,10.07
2022-11-05T03:09:07.512Z,12.93
2022-11-05T03:11:30.755Z,10.80
2022-11-05T03:13:52.942Z,8.30
2022-11-05T03:16:30.578Z,9.40
2022-11-05T03:19:08.243Z,9.23
2022-11-05T03:21:48.147Z,7.73
2022-11-05T03:24:30.579Z,8.80
2022-11-05T03:27:01.546Z,10.53
2022-11-05T03:29:26.337Z,17.43
2022-11-05T03:31:49.931Z,9.77
2022-11-05T03:34:13.236Z,11.70
2022-11-05T03:36:39.641Z,13.20
2022-11-05T03:39:05.847Z,12.27
2022-11-05T03:41:29.704Z,11.47
2022-11-05T03:43:54.882Z,12.07
2022-11-05T03:46:30.641Z,11.83
2022-11-05T03:48:55.378Z,16.10
2022-11-05T03:51:20.718Z,16.83
2022-11-05T03:53:45.031Z,18.83
2022-11-05T03:56:25.986Z,15.47
2022-11-05T03:58:48.710Z,19.37
2022-11-05T04:01:11.246Z,18.30
2022-11-05T04:03:36.468Z,17.90
2022-11-05T04:06:17.629Z,18.23
2022-11-05T04:08:58.815Z,19.77
2022-11-05T04:11:39.895Z,21.83
2022-11-05T04:14:02.113Z,14.60
2022-11-05T04:16:48.955Z,26.00
2022-11-05T04:19:11.118Z,16.27
2022-11-05T04:21:51.983Z,14.03
2022-11-05T04:24:14.646Z,14.27
2022-11-05T04:26:46.012Z,18.40
2022-11-05T04:29:27.155Z,17.13
2022-11-05T04:31:49.791Z,15.73
2022-11-05T04:34:11.974Z,14.23
2022-11-05T04:36:34.220Z,19.53
2022-11-05T04:38:56.673Z,19.03
2022-11-05T04:41:19.103Z,13.60
2022-11-05T04:43:41.373Z,13.20
2022-11-05T04:46:03.566Z,18.03
2022-11-05T04:48:25.792Z,16.90
2022-11-05T04:50:48.176Z,15.53
2022-11-05T04:53:10.608Z,18.70
2022-11-05T04:55:33.148Z,21.40
2022-11-05T04:57:56.153Z,25.27
2022-11-05T05:00:19.062Z,22.03
2022-11-05T05:02:41.240Z,20.63
2022-11-05T05:05:03.900Z,23.97
2022-11-05T05:07:26.731Z,17.23
2022-11-05T05:09:49.039Z,17.50
2022-11-05T05:12:11.215Z,14.00
2022-11-05T05:14:33.382Z,15.27
2022-11-05T05:16:55.712Z,21.37
2022-11-05T05:19:17.943Z,22.20
2022-11-05T05:21:40.597Z,24.77
2022-11-05T05:24:02.963Z,18.07
2022-11-05T05:26:25.175Z,18.70
2022-11-05T05:28:53.982Z,19.27
2022-11-05T05:31:16.187Z,24.17
2022-11-05T05:33:38.363Z,19.13
2022-11-05T05:36:04.673Z,21.97
2022-11-05T05:38:30.706Z,25.50
2022-11-05T05:40:52.911Z,26.30
2022-11-05T05:43:15.163Z,28.77
2022-11-05T05:45:37.325Z,29.63
2022-11-05T05:47:59.505Z,28.67
2022-11-05T05:50:21.949Z,32.17
2022-11-05T05:52:47.398Z,33.67
2022-11-05T05:55:12.574Z,30.47
2022-11-05T05:57:35.115Z,29.10
2022-11-05T05:59:57.340Z,25.67
2022-11-05T06:02:19.629Z,29.90
2022-11-05T06:04:42.001Z,32.67
2022-11-05T06:07:04.395Z,30.83
2022-11-05T06:09:26.586Z,32.37
2022-11-05T06:11:48.775Z,33.93
2022-11-05T06:14:12.161Z,29.20
2022-11-05T06:16:35.809Z,27.73
2022-11-05T06:18:57.996Z,32.37
2022-11-05T06:21:20.321Z,23.40
2022-11-05T06:23:43.719Z,28.63
2022-11-05T06:26:11.327Z,27.53
2022-11-05T06:28:33.884Z,24.90
2022-11-05T06:30:56.469Z,29.07
2022-11-05T06:33:18.703Z,26.53
2022-11-05T06:35:41.035Z,24.43
2022-11-05T06:38:03.190Z,22.70
2022-11-05T06:40:29.829Z,21.27
2022-11-05T06:42:55.910Z,25.57
2022-11-05T06:45:18.098Z,26.90
2022-11-05T06:47:40.334Z,29.57
2022-11-05T06:50:02.814Z,24.73
2022-11-05T06:52:27.107Z,23.83
2022-11-05T06:54:49.466Z,29.10
2022-11-05T06:57:12.702Z,29.43
2022-11-05T06:59:35.227Z,28.33
2022-11-05T07:01:57.748Z,26.13
2022-11-05T07:04:20.109Z,37.07
2022-11-05T07:06:42.579Z,27.47
2022-11-05T07:09:05.263Z,29.10
2022-11-05T07:11:27.729Z,28.43
2022-11-05T07:13:49.958Z,29.27
2022-11-05T07:16:12.191Z,31.03
2022-11-05T07:18:34.391Z,37.30
2022-11-05T07:20:57.649Z,45.70
2022-11-05T07:23:20.131Z,44.77
2022-11-05T07:25:43.323Z,45.07
2022-11-05T07:28:05.631Z,46.97
2022-11-05T07:30:28.349Z,42.47
2022-11-05T07:32:50.672Z,42.70
2022-11-05T07:35:13.238Z,75.43
2022-11-05T07:37:42.987Z,51.47
2022-11-05T07:40:05.451Z,90.57
2022-11-05T07:42:27.712Z,87.90
2022-11-05T07:44:50.541Z,64.07
2022-11-05T07:47:12.817Z,53.87
2022-11-05T07:49:35.107Z,65.57
2022-11-05T07:51:57.346Z,56.17
2022-11-05T07:54:19.575Z,55.13
2022-11-05T07:56:41.938Z,47.50
2022-11-05T07:59:06.328Z,59.43
2022-11-05T08:01:31.600Z,51.10
2022-11-05T08:03:56.971Z,39.47
2022-11-05T08:06:19.226Z,32.40
2022-11-05T08:08:41.543Z,45.57
2022-11-05T08:11:07.050Z,32.93
2022-11-05T08:13:29.274Z,34.57
2022-11-05T08:15:51.524Z,35.63
2022-11-05T08:18:15.391Z,47.77
2022-11-05T08:20:38.498Z,42.43
2022-11-05T08:23:00.873Z,39.73
2022-11-05T08:25:23.272Z,42.30
2022-11-05T08:27:45.786Z,38.17
2022-11-05T08:30:08.479Z,39.83
2022-11-05T08:32:30.671Z,38.43
2022-11-05T08:34:53.126Z,35.23
2022-11-05T08:37:15.324Z,34.57
2022-11-05T08:39:37.540Z,35.73
2022-11-05T08:41:59.759Z,31.93
2022-11-05T08:44:22.257Z,33.60
2022-11-05T08:46:44.460Z,36.93
2022-11-05T08:49:06.667Z,35.37
2022-11-05T08:51:28.850Z,37.60
2022-11-05T08:53:51.074Z,42.20
2022-11-05T08:56:13.295Z,35.17
2022-11-05T08:58:36.033Z,42.33
2022-11-05T09:01:04.518Z,42.43
2022-11-05T09:03:27.346Z,54.17
2022-11-05T09:05:49.616Z,46.87
2022-11-05T09:08:13.167Z,64.80
2022-11-05T09:10:35.991Z,62.33
2022-11-05T09:12:59.740Z,67.97
2022-11-05T09:15:28.314Z,69.07
2022-11-05T09:17:50.698Z,73.77
2022-11-05T09:20:13.008Z,79.57
2022-11-05T09:22:39.224Z,68.00
2022-11-05T09:25:05.520Z,63.30
2022-11-05T09:27:30.587Z,66.47
2022-11-05T09:29:52.962Z,74.00
2022-11-05T09:32:19.323Z,81.57
2022-11-05T09:34:44.318Z,61.40
2022-11-05T09:37:06.472Z,53.70
2022-11-05T09:39:28.795Z,54.87
2022-11-05T09:41:52.609Z,38.53
2022-11-05T09:44:21.211Z,39.60
2022-11-05T09:47:03.864Z,31.47
2022-11-05T09:49:28.518Z,28.77
2022-11-05T09:51:51.451Z,24.30
2022-11-05T09:54:13.814Z,23.00
2022-11-05T09:56:37.939Z,24.43
2022-11-05T09:59:09.251Z,20.30
2022-11-05T10:01:34.123Z,26.03
2022-11-05T10:03:57.731Z,31.93
2022-11-05T10:06:21.544Z,24.97
2022-11-05T10:08:45.033Z,16.57
2022-11-05T10:11:16.745Z,17.10
2022-11-05T10:13:42.136Z,13.80
2022-11-05T10:16:23.179Z,14.17
2022-11-05T10:18:48.157Z,13.13
2022-11-05T10:21:16.467Z,13.17
2022-11-05T10:23:38.871Z,11.80
2022-11-05T10:26:06.413Z,15.90
2022-11-05T10:28:30.119Z,12.87
2022-11-05T10:30:57.895Z,13.80
2022-11-05T10:33:28.578Z,14.00
2022-11-05T10:35:51.896Z,12.80
2022-11-05T10:38:14.914Z,14.53
2022-11-05T10:40:49.947Z,13.07
2022-11-05T10:43:25.148Z,13.23
2022-11-05T10:45:47.507Z,14.80
2022-11-05T10:48:42.317Z,12.63
2022-11-05T10:51:07.816Z,14.27
2022-11-05T10:53:33.587Z,13.43
2022-11-05T10:55:58.444Z,16.07
2022-11-05T10:58:22.990Z,12.53
2022-11-05T11:00:46.622Z,13.53
2022-11-05T11:03:27.562Z,18.33
2022-11-05T11:05:49.741Z,13.23
2022-11-05T11:08:12.110Z,14.63
2022-11-05T11:10:41.847Z,12.20
2022-11-05T11:13:04.078Z,12.30
2022-11-05T11:15:27.874Z,16.70
2022-11-05T11:17:50.195Z,11.60
2022-11-05T11:20:31.838Z,12.43
2022-11-05T11:23:15.559Z,12.20
2022-11-05T11:25:48.209Z,11.50
2022-11-05T11:28:16.078Z,12.03
2022-11-05T11:30:38.264Z,10.43
2022-11-05T11:33:09.875Z,10.53
2022-11-05T11:35:32.408Z,10.47
2022-11-05T11:37:56.404Z,10.07
2022-11-05T11:40:21.362Z,11.83
2022-11-05T11:42:46.523Z,10.33
2022-11-05T11:45:16.335Z,8.93
2022-11-05T11:47:43.494Z,12.73
2022-11-05T11:50:05.787Z,11.63
2022-11-05T11:52:29.808Z,10.60
2022-11-05T11:54:52.695Z,12.17
2022-11-05T11:57:26.330Z,10.83
2022-11-05T12:00:07.610Z,11.43
2022-11-05T12:02:37.959Z,14.17
2022-11-05T12:05:00.239Z,11.60
2022-11-05T12:07:35.554Z,11.83
2022-11-05T12:10:16.932Z,10.03
2022-11-05T12:12:45.733Z,8.87
2022-11-05T12:15:14.093Z,9.93
2022-11-05T12:17:54.376Z,12.40
2022-11-05T12:20:21.512Z,11.43
2022-11-05T12:22:59.237Z,12.27
2022-11-05T12:25:33.639Z,11.47
2022-11-05T12:27:55.959Z,10.67
2022-11-05T12:30:19.450Z,10.67
2022-11-05T12:33:00.436Z,13.10
2022-11-05T12:35:22.936Z,13.23
2022-11-05T12:38:00.403Z,12.03
2022-11-05T12:40:25.697Z,12.50
2022-11-05T12:42:54.166Z,13.40
2022-11-05T12:45:22.774Z,17.70
2022-11-05T12:48:03.486Z,13.33
2022-11-05T12:50:46.087Z,14.27
2022-11-05T12:53:26.943Z,20.97
2022-11-05T12:55:52.690Z,18.50
2022-11-05T12:58:24.416Z,12.90
2022-11-05T13:00:50.321Z,16.63
2022-11-05T13:03:30.845Z,14.23
2022-11-05T13:05:56.339Z,17.00
2022-11-05T13:08:25.458Z,26.77
2022-11-05T13:11:00.265Z,18.30
2022-11-05T13:13:44.891Z,20.03
2022-11-05T13:16:13.035Z,13.43
2022-11-05T13:19:02.649Z,17.00
2022-11-05T13:21:28.918Z,18.40
2022-11-05T13:23:55.539Z,16.90
2022-11-05T13:26:20.780Z,15.63
2022-11-05T13:28:52.274Z,16.07
2022-11-05T13:31:16.824Z,17.00
2022-11-05T13:33:41.775Z,17.40
2022-11-05T13:36:25.499Z,13.10
2022-11-05T13:39:06.994Z,14.57
2022-11-05T13:41:29.154Z,15.90
2022-11-05T13:44:10.123Z,17.30
2022-11-05T13:46:44.075Z,15.60
2022-11-05T13:49:28.364Z,13.87
2022-11-05T13:51:53.228Z,17.07
2022-11-05T13:54:30.826Z,16.07
2022-11-05T13:57:15.790Z,18.67
2022-11-05T13:59:56.938Z,18.13
2022-11-05T14:02:24.981Z,19.57
2022-11-05T14:04:56.675Z,16.87
2022-11-05T14:07:24.627Z,18.07
2022-11-05T14:09:48.482Z,20.00
2022-11-05T14:12:28.856Z,15.57
2022-11-05T14:14:58.673Z,16.77
2022-11-05T14:17:27.786Z,20.17
2022-11-05T14:20:08.182Z,18.17
2022-11-05T14:22:33.593Z,22.17
2022-11-05T14:24:55.829Z,17.70
2022-11-05T14:27:18.042Z,16.27
2022-11-05T14:29:44.443Z,17.80
2022-11-05T14:32:19.268Z,20.10
2022-11-05T14:34:46.494Z,18.30
2022-11-05T14:37:11.896Z,16.10
2022-11-05T14:39:34.253Z,15.27
2022-11-05T14:41:58.504Z,18.83
2022-11-05T14:44:21.079Z,15.90
2022-11-05T14:46:46.428Z,20.80
2022-11-05T14:49:15.946Z,18.30
2022-11-05T14:51:45.746Z,18.33
2022-11-05T14:54:26.805Z,20.17
2022-11-05T14:56:56.256Z,20.17
2022-11-05T14:59:25.103Z,16.90
2022-11-05T15:01:47.479Z,18.27
2022-11-05T15:04:19.239Z,26.83
2022-11-05T15:07:01.449Z,18.07
2022-11-05T15:09:27.436Z,17.23
2022-11-05T15:11:53.485Z,18.60
2022-11-05T15:14:24.240Z,16.77
2022-11-05T15:16:56.590Z,19.70
2022-11-05T15:19:22.031Z,19.93
2022-11-05T15:21:45.796Z,17.87
2022-11-05T15:24:09.666Z,23.87
2022-11-05T15:26:46.234Z,16.23
2022-11-05T15:29:24.321Z,18.93
2022-11-05T15:31:49.937Z,16.60
2022-11-05T15:34:12.095Z,18.60
2022-11-05T15:36:34.341Z,18.93
2022-11-05T15:39:27.353Z,18.63
2022-11-05T15:41:39.459Z,19.03
2022-11-05T15:44:02.748Z,20.13
2022-11-05T15:46:28.026Z,20.40
2022-11-05T15:48:54.557Z,22.47
2022-11-05T15:51:17.765Z,23.37
2022-11-05T15:54:08.799Z,15.37
2022-11-05T15:56:47.363Z,18.13
2022-11-05T15:59:20.602Z,16.23
2022-11-05T16:01:54.686Z,20.07
2022-11-05T16:04:20.091Z,17.70
2022-11-05T16:06:43.583Z,24.90
2022-11-05T16:09:06.154Z,22.17
2022-11-05T16:11:28.303Z,20.80
2022-11-05T16:13:51.561Z,19.70
2022-11-05T16:16:16.483Z,26.77
2022-11-05T16:18:39.006Z,24.77
2022-11-05T16:21:02.399Z,18.83
2022-11-05T16:23:25.521Z,22.50
2022-11-05T16:25:47.770Z,23.17
2022-11-05T16:28:23.436Z,19.23
2022-11-05T16:31:02.674Z,31.27
2022-11-05T16:33:26.153Z,22.93
2022-11-05T16:35:49.625Z,22.17
2022-11-05T16:38:13.455Z,21.43
2022-11-05T16:40:35.953Z,23.90
2022-11-05T16:43:08.753Z,22.37
2022-11-05T16:45:31.191Z,23.10
2022-11-05T16:47:53.431Z,22.27
2022-11-05T16:50:15.706Z,19.53
2022-11-05T16:52:37.960Z,17.93
2022-11-05T16:55:00.135Z,22.00
2022-11-05T16:57:25.102Z,18.37
2022-11-05T16:59:47.523Z,15.33
2022-11-05T17:02:11.880Z,17.50
2022-11-05T17:04:34.320Z,21.60
2022-11-05T17:06:56.528Z,15.93
2022-11-05T17:09:18.990Z,14.70
2022-11-05T17:11:41.188Z,15.77
2022-11-05T17:14:03.600Z,15.00
2022-11-05T17:16:26.729Z,19.83
2022-11-05T17:18:48.933Z,17.13
2022-11-05T17:21:12.641Z,14.60
2022-11-05T17:23:35.079Z,17.80
2022-11-05T17:26:01.282Z,14.27
2022-11-05T17:28:23.799Z,14.47
2022-11-05T17:30:52.157Z,15.37
2022-11-05T17:33:16.153Z,18.77
2022-11-05T17:35:39.833Z,15.07
2022-11-05T17:38:02.024Z,15.53
2022-11-05T17:40:24.515Z,15.70
2022-11-05T17:42:47.010Z,17.23
2022-11-05T17:45:10.149Z,16.60
2022-11-05T17:47:32.342Z,16.23
2022-11-05T17:49:54.574Z,21.20
2022-11-05T17:52:16.853Z,18.33
2022-11-05T17:54:39.045Z,16.70
2022-11-05T17:57:01.254Z,16.70
2022-11-05T17:59:23.431Z,15.57
2022-11-05T18:01:46.047Z,19.33
2022-11-05T18:04:09.295Z,13.97
2022-11-05T18:06:32.094Z,13.83
2022-11-05T18:08:54.371Z,17.23
2022-11-05T18:11:16.640Z,16.13
2022-11-05T18:13:38.853Z,16.37
2022-11-05T18:16:01.823Z,19.57
2022-11-05T18:18:24.136Z,18.17
2022-11-05T18:20:46.887Z,19.67
2022-11-05T18:23:09.431Z,19.43
2022-11-05T18:25:32.739Z,20.93
2022-11-05T18:27:54.991Z,18.33
2022-11-05T18:30:17.512Z,15.00
2022-11-05T18:32:39.697Z,14.80
2022-11-05T18:35:02.025Z,20.27
2022-11-05T18:37:27.101Z,16.60
2022-11-05T18:39:52.774Z,15.30
2022-11-05T18:42:15.067Z,19.73
2022-11-05T18:44:39.351Z,18.07
2022-11-05T18:47:02.028Z,22.07
2022-11-05T18:49:24.240Z,17.37
2022-11-05T18:51:46.765Z,17.33
2022-11-05T18:54:09.031Z,14.53
2022-11-05T18:56:32.350Z,17.53
2022-11-05T18:59:21.889Z,14.90
2022-11-05T19:01:40.950Z,16.13
2022-11-05T19:04:03.344Z,11.50
2022-11-05T19:06:26.134Z,12.90
2022-11-05T19:08:48.563Z,13.50
2022-11-05T19:11:15.266Z,21.10
2022-11-05T19:13:38.335Z,16.30
2022-11-05T19:16:00.835Z,11.53
2022-11-05T19:18:23.181Z,17.40
2022-11-05T19:20:45.571Z,27.60
2022-11-05T19:23:07.775Z,12.73
2022-11-05T19:25:30.125Z,11.87
2022-11-05T19:27:52.548Z,13.53
2022-11-05T19:30:14.800Z,13.27
2022-11-05T19:32:37.221Z,10.23
2022-11-05T19:34:59.438Z,12.73
2022-11-05T19:37:21.691Z,19.17
2022-11-05T19:39:43.914Z,14.13
2022-11-05T19:42:06.858Z,10.40
2022-11-05T19:44:29.178Z,9.57
2022-11-05T19:46:51.748Z,11.40
2022-11-05T19:49:14.115Z,15.17
2022-11-05T19:51:37.715Z,15.23
2022-11-05T19:54:01.249Z,8.80
2022-11-05T19:56:27.331Z,10.40
2022-11-05T19:58:49.631Z,7.70
2022-11-05T20:01:13.233Z,10.13
2022-11-05T20:03:37.822Z,9.03
2022-11-05T20:06:07.802Z,11.67
2022-11-05T20:08:30.335Z,13.10
2022-11-05T20:10:55.785Z,12.20
2022-11-05T20:13:19.962Z,16.00
2022-11-05T20:15:42.498Z,11.43
2022-11-05T20:18:04.762Z,10.80
2022-11-05T20:20:27.298Z,9.00
2022-11-05T20:22:51.627Z,8.43
2022-11-05T20:25:13.922Z,6.43
2022-11-05T20:27:38.661Z,10.90
2022-11-05T20:30:01.006Z,9.57
2022-11-05T20:32:23.264Z,10.43
2022-11-05T20:34:45.524Z,11.80
2022-11-05T20:37:07.821Z,9.13
2022-11-05T20:39:32.111Z,10.97
2022-11-05T20:41:56.295Z,9.47
2022-11-05T20:44:18.608Z,11.43
2022-11-05T20:46:41.102Z,9.00
2022-11-05T20:49:03.502Z,8.43
2022-11-05T20:51:25.714Z,9.27
2022-11-05T20:53:48.288Z,12.33
2022-11-05T20:56:16.693Z,13.07
2022-11-05T20:58:39.806Z,12.67
2022-11-05T21:01:02.199Z,12.97
2022-11-05T21:03:29.722Z,11.53
2022-11-05T21:05:56.378Z,14.63
2022-11-05T21:08:20.103Z,8.70
2022-11-05T21:10:45.917Z,10.70
2022-11-05T21:13:12.537Z,11.13
2022-11-05T21:15:34.763Z,11.93
2022-11-05T21:17:57.017Z,14.10
2022-11-05T21:20:19.347Z,9.90
2022-11-05T21:22:43.930Z,11.83
2022-11-05T21:25:06.357Z,11.50
2022-11-05T21:27:28.550Z,9.10
2022-11-05T21:29:50.963Z,11.00
2022-11-05T21:32:13.196Z,13.10
2022-11-05T21:34:35.397Z,11.67
2022-11-05T21:36:57.643Z,11.70
2022-11-05T21:39:20.130Z,10.53
2022-11-05T21:41:42.785Z,11.17
2022-11-05T21:44:05.508Z,8.40
2022-11-05T21:46:27.882Z,11.23
2022-11-05T21:48:50.211Z,11.87
2022-11-05T21:51:31.279Z,9.93
2022-11-05T21:54:12.085Z,12.73
2022-11-05T21:56:53.059Z,16.43
2022-11-05T21:59:35.621Z,13.60
2022-11-05T22:02:01.695Z,15.77
2022-11-05T22:04:24.140Z,15.17
2022-11-05T22:06:46.330Z,14.80
2022-11-05T22:09:08.787Z,13.53
2022-11-05T22:11:35.316Z,13.13
2022-11-05T22:13:57.694Z,14.50
2022-11-05T22:16:19.914Z,14.30
2022-11-05T22:18:42.124Z,12.77
2022-11-05T22:21:04.335Z,11.47
2022-11-05T22:23:26.650Z,11.40
2022-11-05T22:25:49.047Z,16.60
2022-11-05T22:28:11.449Z,13.53
2022-11-05T22:30:34.786Z,11.37
2022-11-05T22:32:57.053Z,10.73
2022-11-05T22:35:19.306Z,9.27
2022-11-05T22:37:41.555Z,11.07
2022-11-05T22:40:03.843Z,12.90
2022-11-05T22:42:26.176Z,9.77
2022-11-05T22:44:48.461Z,13.63
2022-11-05T22:47:10.763Z,12.53
2022-11-05T22:49:33.227Z,15.27
2022-11-05T22:51:55.385Z,12.53
2022-11-05T22:54:17.922Z,13.67
2022-11-05T22:56:45.450Z,15.63
2022-11-05T22:59:09.399Z,12.87
2022-11-05T23:01:31.928Z,11.37
2022-11-05T23:03:55.425Z,14.83
2022-11-05T23:06:37.934Z,17.40
2022-11-05T23:09:19.110Z,15.80
2022-11-05T23:11:42.057Z,13.97
2022-11-05T23:14:05.231Z,14.87
2022-11-05T23:16:46.075Z,13.27
2022-11-05T23:19:27.945Z,12.60
2022-11-05T23:22:09.040Z,11.63
2022-11-05T23:24:31.270Z,14.03
2022-11-05T23:26:53.940Z,14.43
2022-11-05T23:29:16.365Z,13.47
2022-11-05T23:31:57.237Z,12.80
2022-11-05T23:34:19.453Z,13.37
2022-11-05T23:37:00.350Z,14.90
2022-11-05T23:39:22.774Z,16.50
2022-11-05T23:42:03.843Z,15.27
2022-11-05T23:44:45.050Z,11.73
2022-11-05T23:47:26.887Z,12.63
2022-11-05T23:49:49.073Z,15.87
2022-11-05T23:52:11.319Z,15.87
2022-11-05T23:54:33.524Z,15.27
2022-11-05T23:56:55.726Z,15.60
2022-11-05T23:59:17.951Z,12.23
